sensor_id;sensor_type;location;lat;lon;timestamp;P1;durP1;ratioP1;P2;durP2;ratioP2
21305;SDS011;10812;51.838;5.838;2022-12-11T00:01:35;48.40;;;17.67;;
21305;SDS011;10812;51.838;5.838;2022-12-11T00:04:03;54.60;;;17.63;;
21305;SDS011;10812;51.838;5.838;2022-12-11T00:06:31;51.37;;;17.63;;
21305;SDS011;10812;51.838;5.838;2022-12-11T00:08:59;49.07;;;17.87;;
21305;SDS011;10812;51.838;5.838;2022-12-11T00:11:27;51.27;;;17.27;;
21305;SDS011;10812;51.838;5.838;2022-12-11T00:13:55;51.43;;;18.10;;
21305;SDS011;10812;51.838;5.838;2022-12-11T00:16:23;58.40;;;17.40;;
21305;SDS011;10812;51.838;5.838;2022-12-11T00:18:54;53.83;;;17.93;;
21305;SDS011;10812;51.838;5.838;2022-12-11T00:21:22;61.67;;;19.67;;
21305;SDS011;10812;51.838;5.838;2022-12-11T00:23:50;45.97;;;17.10;;
21305;SDS011;10812;51.838;5.838;2022-12-11T00:26:18;51.77;;;17.77;;
21305;SDS011;10812;51.838;5.838;2022-12-11T00:28:46;57.57;;;17.47;;
21305;SDS011;10812;51.838;5.838;2022-12-11T00:31:19;52.63;;;17.03;;
21305;SDS011;10812;51.838;5.838;2022-12-11T00:33:48;55.73;;;16.70;;
21305;SDS011;10812;51.838;5.838;2022-12-11T00:36:19;45.83;;;16.70;;
21305;SDS011;10812;51.838;5.838;2022-12-11T00:38:48;55.80;;;18.57;;
21305;SDS011;10812;51.838;5.838;2022-12-11T00:41:17;48.30;;;15.93;;
21305;SDS011;10812;51.838;5.838;2022-12-11T00:43:45;53.27;;;16.80;;
21305;SDS011;10812;51.838;5.838;2022-12-11T00:46:14;63.20;;;19.10;;
21305;SDS011;10812;51.838;5.838;2022-12-11T00:48:42;50.23;;;17.23;;
21305;SDS011;10812;51.838;5.838;2022-12-11T00:51:11;56.83;;;18.73;;
21305;SDS011;10812;51.838;5.838;2022-12-11T00:53:40;46.50;;;16.20;;
21305;SDS011;10812;51.838;5.838;2022-12-11T00:56:10;56.93;;;17.60;;
21305;SDS011;10812;51.838;5.838;2022-12-11T00:58:40;50.23;;;17.10;;
21305;SDS011;10812;51.838;5.838;2022-12-11T01:01:09;48.77;;;16.73;;
21305;SDS011;10812;51.838;5.838;2022-12-11T01:03:38;47.70;;;17.40;;
21305;SDS011;10812;51.838;5.838;2022-12-11T01:06:07;49.57;;;17.30;;
21305;SDS011;10812;51.838;5.838;2022-12-11T01:08:38;46.33;;;16.83;;
21305;SDS011;10812;51.838;5.838;2022-12-11T01:11:08;54.03;;;16.87;;
21305;SDS011;10812;51.838;5.838;2022-12-11T01:13:37;62.23;;;17.87;;
21305;SDS011;10812;51.838;5.838;2022-12-11T01:16:09;53.73;;;17.90;;
21305;SDS011;10812;51.838;5.838;2022-12-11T01:18:39;63.37;;;18.90;;
21305;SDS011;10812;51.838;5.838;2022-12-11T01:21:07;55.17;;;17.00;;
21305;SDS011;10812;51.838;5.838;2022-12-11T01:23:37;58.20;;;17.33;;
21305;SDS011;10812;51.838;5.838;2022-12-11T01:26:08;56.90;;;18.87;;
21305;SDS011;10812;51.838;5.838;2022-12-11T01:28:38;53.97;;;16.17;;
21305;SDS011;10812;51.838;5.838;2022-12-11T01:31:07;60.83;;;17.87;;
21305;SDS011;10812;51.838;5.838;2022-12-11T01:33:35;62.40;;;19.33;;
21305;SDS011;10812;51.838;5.838;2022-12-11T01:36:05;64.93;;;19.67;;
21305;SDS011;10812;51.838;5.838;2022-12-11T01:38:35;61.53;;;20.63;;
21305;SDS011;10812;51.838;5.838;2022-12-11T01:41:04;74.73;;;20.97;;
21305;SDS011;10812;51.838;5.838;2022-12-11T01:43:33;68.00;;;19.40;;
21305;SDS011;10812;51.838;5.838;2022-12-11T01:46:02;69.97;;;19.13;;
21305;SDS011;10812;51.838;5.838;2022-12-11T01:48:30;64.77;;;23.00;;
21305;SDS011;10812;51.838;5.838;2022-12-11T01:51:05;73.60;;;21.67;;
21305;SDS011;10812;51.838;5.838;2022-12-11T01:53:35;86.93;;;24.07;;
21305;SDS011;10812;51.838;5.838;2022-12-11T01:56:08;85.13;;;24.47;;
21305;SDS011;10812;51.838;5.838;2022-12-11T01:58:39;73.63;;;23.77;;
21305;SDS011;10812;51.838;5.838;2022-12-11T02:01:13;63.60;;;19.67;;
21305;SDS011;10812;51.838;5.838;2022-12-11T02:03:47;81.60;;;22.27;;
21305;SDS011;10812;51.838;5.838;2022-12-11T02:06:29;84.70;;;23.77;;
21305;SDS011;10812;51.838;5.838;2022-12-11T02:08:59;73.83;;;23.67;;
21305;SDS011;10812;51.838;5.838;2022-12-11T02:11:30;64.97;;;22.27;;
21305;SDS011;10812;51.838;5.838;2022-12-11T02:14:07;65.90;;;20.73;;
21305;SDS011;10812;51.838;5.838;2022-12-11T02:16:43;68.60;;;21.13;;
21305;SDS011;10812;51.838;5.838;2022-12-11T02:19:17;65.03;;;21.60;;
21305;SDS011;10812;51.838;5.838;2022-12-11T02:21:57;59.97;;;19.63;;
21305;SDS011;10812;51.838;5.838;2022-12-11T02:24:36;69.00;;;24.07;;
21305;SDS011;10812;51.838;5.838;2022-12-11T02:27:19;58.20;;;19.37;;
21305;SDS011;10812;51.838;5.838;2022-12-11T02:29:57;66.40;;;20.77;;
21305;SDS011;10812;51.838;5.838;2022-12-11T02:44:02;58.27;;;19.33;;
21305;SDS011;10812;51.838;5.838;2022-12-11T02:46:32;58.23;;;19.57;;
21305;SDS011;10812;51.838;5.838;2022-12-11T02:49:02;64.13;;;19.73;;
21305;SDS011;10812;51.838;5.838;2022-12-11T02:51:33;73.40;;;20.67;;
21305;SDS011;10812;51.838;5.838;2022-12-11T02:54:06;63.43;;;19.27;;
21305;SDS011;10812;51.838;5.838;2022-12-11T02:56:39;67.57;;;19.53;;
21305;SDS011;10812;51.838;5.838;2022-12-11T02:59:12;63.00;;;21.47;;
21305;SDS011;10812;51.838;5.838;2022-12-11T03:07:07;69.53;;;23.40;;
21305;SDS011;10812;51.838;5.838;2022-12-11T03:09:38;62.90;;;20.77;;
21305;SDS011;10812;51.838;5.838;2022-12-11T03:12:07;69.47;;;21.97;;
21305;SDS011;10812;51.838;5.838;2022-12-11T03:14:37;61.90;;;19.73;;
21305;SDS011;10812;51.838;5.838;2022-12-11T03:17:10;67.77;;;21.60;;
21305;SDS011;10812;51.838;5.838;2022-12-11T03:19:43;66.57;;;21.90;;
21305;SDS011;10812;51.838;5.838;2022-12-11T03:22:19;61.97;;;21.30;;
21305;SDS011;10812;51.838;5.838;2022-12-11T03:24:51;68.80;;;20.50;;
21305;SDS011;10812;51.838;5.838;2022-12-11T03:27:26;59.93;;;19.67;;
21305;SDS011;10812;51.838;5.838;2022-12-11T03:29:56;62.10;;;21.60;;
21305;SDS011;10812;51.838;5.838;2022-12-11T03:32:30;71.10;;;21.43;;
21305;SDS011;10812;51.838;5.838;2022-12-11T03:35:06;59.53;;;21.03;;
21305;SDS011;10812;51.838;5.838;2022-12-11T03:37:40;61.87;;;20.93;;
21305;SDS011;10812;51.838;5.838;2022-12-11T03:40:11;63.97;;;19.67;;
21305;SDS011;10812;51.838;5.838;2022-12-11T03:42:42;62.47;;;20.87;;
21305;SDS011;10812;51.838;5.838;2022-12-11T03:45:13;60.10;;;20.80;;
21305;SDS011;10812;51.838;5.838;2022-12-11T03:47:42;63.67;;;20.07;;
21305;SDS011;10812;51.838;5.838;2022-12-11T03:50:12;54.67;;;19.30;;
21305;SDS011;10812;51.838;5.838;2022-12-11T03:52:45;50.80;;;19.43;;
21305;SDS011;10812;51.838;5.838;2022-12-11T03:55:14;61.23;;;19.53;;
21305;SDS011;10812;51.838;5.838;2022-12-11T03:57:45;57.57;;;20.03;;
21305;SDS011;10812;51.838;5.838;2022-12-11T04:00:15;51.77;;;19.03;;
21305;SDS011;10812;51.838;5.838;2022-12-11T04:02:45;62.33;;;21.30;;
21305;SDS011;10812;51.838;5.838;2022-12-11T04:05:39;52.67;;;19.83;;
21305;SDS011;10812;51.838;5.838;2022-12-11T04:08:09;51.17;;;18.97;;
21305;SDS011;10812;51.838;5.838;2022-12-11T04:10:37;63.43;;;20.47;;
21305;SDS011;10812;51.838;5.838;2022-12-11T04:13:06;58.73;;;21.77;;
21305;SDS011;10812;51.838;5.838;2022-12-11T04:15:35;51.90;;;19.53;;
21305;SDS011;10812;51.838;5.838;2022-12-11T04:18:03;50.17;;;20.03;;
21305;SDS011;10812;51.838;5.838;2022-12-11T04:20:51;57.70;;;20.20;;
21305;SDS011;10812;51.838;5.838;2022-12-11T04:23:38;50.43;;;20.93;;
21305;SDS011;10812;51.838;5.838;2022-12-11T04:26:24;58.27;;;21.97;;
21305;SDS011;10812;51.838;5.838;2022-12-11T04:28:52;49.13;;;18.77;;
21305;SDS011;10812;51.838;5.838;2022-12-11T04:31:21;53.73;;;20.57;;
21305;SDS011;10812;51.838;5.838;2022-12-11T04:33:49;49.33;;;19.30;;
21305;SDS011;10812;51.838;5.838;2022-12-11T04:36:18;56.63;;;21.10;;
21305;SDS011;10812;51.838;5.838;2022-12-11T04:38:47;43.13;;;18.17;;
21305;SDS011;10812;51.838;5.838;2022-12-11T04:41:15;57.33;;;20.10;;
21305;SDS011;10812;51.838;5.838;2022-12-11T04:43:44;51.57;;;20.07;;
21305;SDS011;10812;51.838;5.838;2022-12-11T04:46:15;46.37;;;18.97;;
21305;SDS011;10812;51.838;5.838;2022-12-11T04:48:45;46.30;;;17.37;;
21305;SDS011;10812;51.838;5.838;2022-12-11T04:51:22;46.43;;;18.30;;
21305;SDS011;10812;51.838;5.838;2022-12-11T04:53:52;49.40;;;20.17;;
21305;SDS011;10812;51.838;5.838;2022-12-11T04:56:20;43.87;;;17.67;;
21305;SDS011;10812;51.838;5.838;2022-12-11T04:58:48;44.33;;;17.03;;
21305;SDS011;10812;51.838;5.838;2022-12-11T05:01:18;43.83;;;17.90;;
21305;SDS011;10812;51.838;5.838;2022-12-11T05:03:48;47.63;;;17.77;;
21305;SDS011;10812;51.838;5.838;2022-12-11T05:06:16;43.63;;;16.60;;
21305;SDS011;10812;51.838;5.838;2022-12-11T05:08:44;44.17;;;18.87;;
21305;SDS011;10812;51.838;5.838;2022-12-11T05:11:15;48.37;;;18.23;;
21305;SDS011;10812;51.838;5.838;2022-12-11T05:13:43;45.03;;;16.77;;
21305;SDS011;10812;51.838;5.838;2022-12-11T05:16:12;43.20;;;18.17;;
21305;SDS011;10812;51.838;5.838;2022-12-11T05:18:42;37.33;;;15.60;;
21305;SDS011;10812;51.838;5.838;2022-12-11T05:21:11;45.93;;;17.87;;
21305;SDS011;10812;51.838;5.838;2022-12-11T05:23:41;53.23;;;20.60;;
21305;SDS011;10812;51.838;5.838;2022-12-11T05:26:10;39.80;;;17.47;;
21305;SDS011;10812;51.838;5.838;2022-12-11T05:28:41;44.37;;;18.43;;
21305;SDS011;10812;51.838;5.838;2022-12-11T05:31:11;42.30;;;17.23;;
21305;SDS011;10812;51.838;5.838;2022-12-11T05:33:40;39.50;;;16.57;;
21305;SDS011;10812;51.838;5.838;2022-12-11T05:36:08;47.40;;;17.00;;
21305;SDS011;10812;51.838;5.838;2022-12-11T05:38:42;39.50;;;17.00;;
21305;SDS011;10812;51.838;5.838;2022-12-11T05:41:11;40.10;;;16.90;;
21305;SDS011;10812;51.838;5.838;2022-12-11T05:43:41;35.83;;;16.77;;
21305;SDS011;10812;51.838;5.838;2022-12-11T05:46:11;38.03;;;17.27;;
21305;SDS011;10812;51.838;5.838;2022-12-11T05:48:41;34.07;;;15.13;;
21305;SDS011;10812;51.838;5.838;2022-12-11T05:51:10;33.63;;;14.10;;
21305;SDS011;10812;51.838;5.838;2022-12-11T05:53:39;30.63;;;12.97;;
21305;SDS011;10812;51.838;5.838;2022-12-11T05:56:09;35.20;;;13.77;;
21305;SDS011;10812;51.838;5.838;2022-12-11T05:58:39;25.07;;;12.87;;
21305;SDS011;10812;51.838;5.838;2022-12-11T06:01:10;31.10;;;13.20;;
21305;SDS011;10812;51.838;5.838;2022-12-11T06:03:40;28.73;;;13.17;;
21305;SDS011;10812;51.838;5.838;2022-12-11T06:06:08;30.20;;;13.30;;
21305;SDS011;10812;51.838;5.838;2022-12-11T06:08:36;27.50;;;12.73;;
21305;SDS011;10812;51.838;5.838;2022-12-11T06:11:05;30.33;;;14.00;;
21305;SDS011;10812;51.838;5.838;2022-12-11T06:13:33;24.27;;;11.53;;
21305;SDS011;10812;51.838;5.838;2022-12-11T06:16:02;31.33;;;13.40;;
21305;SDS011;10812;51.838;5.838;2022-12-11T06:18:35;26.10;;;12.50;;
21305;SDS011;10812;51.838;5.838;2022-12-11T06:21:10;23.63;;;11.80;;
21305;SDS011;10812;51.838;5.838;2022-12-11T06:23:39;25.83;;;12.67;;
21305;SDS011;10812;51.838;5.838;2022-12-11T06:26:08;30.20;;;13.57;;
21305;SDS011;10812;51.838;5.838;2022-12-11T06:28:37;27.57;;;12.17;;
21305;SDS011;10812;51.838;5.838;2022-12-11T06:31:05;23.60;;;11.40;;
21305;SDS011;10812;51.838;5.838;2022-12-11T06:33:35;24.37;;;12.10;;
21305;SDS011;10812;51.838;5.838;2022-12-11T06:36:04;27.40;;;13.33;;
21305;SDS011;10812;51.838;5.838;2022-12-11T06:38:34;20.97;;;10.57;;
21305;SDS011;10812;51.838;5.838;2022-12-11T06:41:02;24.47;;;12.27;;
21305;SDS011;10812;51.838;5.838;2022-12-11T06:43:31;23.60;;;11.63;;
21305;SDS011;10812;51.838;5.838;2022-12-11T06:46:01;25.17;;;11.93;;
21305;SDS011;10812;51.838;5.838;2022-12-11T06:48:30;22.47;;;12.07;;
21305;SDS011;10812;51.838;5.838;2022-12-11T06:51:00;23.23;;;12.50;;
21305;SDS011;10812;51.838;5.838;2022-12-11T06:53:31;21.43;;;11.27;;
21305;SDS011;10812;51.838;5.838;2022-12-11T06:56:03;23.57;;;11.43;;
21305;SDS011;10812;51.838;5.838;2022-12-11T06:58:32;19.17;;;10.30;;
21305;SDS011;10812;51.838;5.838;2022-12-11T07:01:02;20.90;;;11.83;;
21305;SDS011;10812;51.838;5.838;2022-12-11T07:03:31;19.73;;;10.93;;
21305;SDS011;10812;51.838;5.838;2022-12-11T07:06:01;26.27;;;11.53;;
21305;SDS011;10812;51.838;5.838;2022-12-11T07:08:29;21.57;;;10.97;;
21305;SDS011;10812;51.838;5.838;2022-12-11T07:11:01;21.00;;;10.83;;
21305;SDS011;10812;51.838;5.838;2022-12-11T07:13:31;21.73;;;10.83;;
21305;SDS011;10812;51.838;5.838;2022-12-11T07:15:59;22.33;;;10.30;;
21305;SDS011;10812;51.838;5.838;2022-12-11T07:18:29;20.17;;;10.53;;
21305;SDS011;10812;51.838;5.838;2022-12-11T07:20:58;24.43;;;11.60;;
21305;SDS011;10812;51.838;5.838;2022-12-11T07:23:28;19.10;;;11.40;;
21305;SDS011;10812;51.838;5.838;2022-12-11T07:25:56;18.07;;;10.57;;
21305;SDS011;10812;51.838;5.838;2022-12-11T07:28:24;22.17;;;10.90;;
21305;SDS011;10812;51.838;5.838;2022-12-11T07:30:52;20.67;;;10.80;;
21305;SDS011;10812;51.838;5.838;2022-12-11T07:33:20;23.60;;;10.97;;
21305;SDS011;10812;51.838;5.838;2022-12-11T07:35:48;22.53;;;10.40;;
21305;SDS011;10812;51.838;5.838;2022-12-11T07:38:16;20.93;;;11.30;;
21305;SDS011;10812;51.838;5.838;2022-12-11T07:40:46;21.87;;;10.73;;
21305;SDS011;10812;51.838;5.838;2022-12-11T07:54:46;19.30;;;10.30;;
21305;SDS011;10812;51.838;5.838;2022-12-11T07:57:15;24.77;;;12.00;;
21305;SDS011;10812;51.838;5.838;2022-12-11T07:59:43;19.13;;;10.43;;
21305;SDS011;10812;51.838;5.838;2022-12-11T08:02:12;20.03;;;11.03;;
21305;SDS011;10812;51.838;5.838;2022-12-11T08:04:40;25.23;;;11.17;;
21305;SDS011;10812;51.838;5.838;2022-12-11T08:11:11;22.13;;;11.00;;
21305;SDS011;10812;51.838;5.838;2022-12-11T08:13:42;21.20;;;11.87;;
21305;SDS011;10812;51.838;5.838;2022-12-11T08:16:11;21.67;;;11.77;;
21305;SDS011;10812;51.838;5.838;2022-12-11T08:18:41;19.43;;;10.93;;
21305;SDS011;10812;51.838;5.838;2022-12-11T08:21:10;23.70;;;11.87;;
21305;SDS011;10812;51.838;5.838;2022-12-11T08:23:39;21.73;;;11.20;;
21305;SDS011;10812;51.838;5.838;2022-12-11T08:26:08;18.67;;;10.07;;
21305;SDS011;10812;51.838;5.838;2022-12-11T08:28:39;24.07;;;11.70;;
21305;SDS011;10812;51.838;5.838;2022-12-11T08:31:09;17.67;;;9.93;;
21305;SDS011;10812;51.838;5.838;2022-12-11T08:33:38;22.03;;;9.80;;
21305;SDS011;10812;51.838;5.838;2022-12-11T08:36:08;24.13;;;11.20;;
21305;SDS011;10812;51.838;5.838;2022-12-11T08:38:38;22.73;;;11.17;;
21305;SDS011;10812;51.838;5.838;2022-12-11T08:41:07;19.50;;;10.23;;
21305;SDS011;10812;51.838;5.838;2022-12-11T08:43:36;21.27;;;10.63;;
21305;SDS011;10812;51.838;5.838;2022-12-11T08:46:04;24.13;;;11.20;;
21305;SDS011;10812;51.838;5.838;2022-12-11T08:48:35;18.57;;;10.97;;
21305;SDS011;10812;51.838;5.838;2022-12-11T08:51:05;22.27;;;11.37;;
21305;SDS011;10812;51.838;5.838;2022-12-11T08:53:35;22.07;;;11.97;;
21305;SDS011;10812;51.838;5.838;2022-12-11T08:56:04;22.37;;;11.03;;
21305;SDS011;10812;51.838;5.838;2022-12-11T08:58:34;20.00;;;10.57;;
21305;SDS011;10812;51.838;5.838;2022-12-11T09:01:05;17.80;;;10.30;;
21305;SDS011;10812;51.838;5.838;2022-12-11T09:03:35;18.97;;;10.10;;
21305;SDS011;10812;51.838;5.838;2022-12-11T09:06:04;19.50;;;9.70;;
21305;SDS011;10812;51.838;5.838;2022-12-11T09:08:34;20.40;;;10.63;;
21305;SDS011;10812;51.838;5.838;2022-12-11T09:11:03;19.17;;;10.73;;
21305;SDS011;10812;51.838;5.838;2022-12-11T09:13:31;17.03;;;10.00;;
21305;SDS011;10812;51.838;5.838;2022-12-11T09:16:00;22.10;;;10.80;;
21305;SDS011;10812;51.838;5.838;2022-12-11T09:18:30;21.93;;;9.90;;
21305;SDS011;10812;51.838;5.838;2022-12-11T09:21:00;18.30;;;10.93;;
21305;SDS011;10812;51.838;5.838;2022-12-11T09:23:30;18.03;;;9.30;;
21305;SDS011;10812;51.838;5.838;2022-12-11T09:25:58;20.40;;;10.87;;
21305;SDS011;10812;51.838;5.838;2022-12-11T09:28:26;17.37;;;10.30;;
21305;SDS011;10812;51.838;5.838;2022-12-11T09:30:54;16.67;;;9.97;;
21305;SDS011;10812;51.838;5.838;2022-12-11T09:33:22;19.97;;;10.77;;
21305;SDS011;10812;51.838;5.838;2022-12-11T09:35:55;22.60;;;11.67;;
21305;SDS011;10812;51.838;5.838;2022-12-11T09:38:26;19.23;;;10.87;;
21305;SDS011;10812;51.838;5.838;2022-12-11T09:40:54;20.10;;;11.43;;
21305;SDS011;10812;51.838;5.838;2022-12-11T09:43:28;21.03;;;10.33;;
21305;SDS011;10812;51.838;5.838;2022-12-11T09:46:04;17.67;;;10.23;;
21305;SDS011;10812;51.838;5.838;2022-12-11T09:48:35;18.73;;;9.30;;
21305;SDS011;10812;51.838;5.838;2022-12-11T09:51:09;22.07;;;12.00;;
21305;SDS011;10812;51.838;5.838;2022-12-11T09:53:45;19.07;;;10.83;;
21305;SDS011;10812;51.838;5.838;2022-12-11T09:56:16;19.23;;;10.33;;
21305;SDS011;10812;51.838;5.838;2022-12-11T09:58:57;17.40;;;10.90;;
21305;SDS011;10812;51.838;5.838;2022-12-11T10:01:33;18.43;;;9.80;;
21305;SDS011;10812;51.838;5.838;2022-12-11T10:04:17;18.43;;;10.80;;
21305;SDS011;10812;51.838;5.838;2022-12-11T10:06:58;18.67;;;10.27;;
21305;SDS011;10812;51.838;5.838;2022-12-11T10:13:56;18.47;;;10.40;;
21305;SDS011;10812;51.838;5.838;2022-12-11T10:16:33;18.90;;;10.30;;
21305;SDS011;10812;51.838;5.838;2022-12-11T10:19:06;22.23;;;11.00;;
21305;SDS011;10812;51.838;5.838;2022-12-11T10:21:42;22.40;;;11.37;;
21305;SDS011;10812;51.838;5.838;2022-12-11T10:24:11;19.97;;;10.87;;
21305;SDS011;10812;51.838;5.838;2022-12-11T10:27:17;21.43;;;11.40;;
21305;SDS011;10812;51.838;5.838;2022-12-11T10:29:50;22.27;;;12.33;;
21305;SDS011;10812;51.838;5.838;2022-12-11T10:32:26;21.43;;;12.00;;
21305;SDS011;10812;51.838;5.838;2022-12-11T10:35:03;19.67;;;11.87;;
21305;SDS011;10812;51.838;5.838;2022-12-11T10:37:33;20.27;;;11.83;;
21305;SDS011;10812;51.838;5.838;2022-12-11T10:40:01;21.23;;;12.17;;
21305;SDS011;10812;51.838;5.838;2022-12-11T10:42:29;24.57;;;12.20;;
21305;SDS011;10812;51.838;5.838;2022-12-11T10:44:59;17.83;;;11.27;;
21305;SDS011;10812;51.838;5.838;2022-12-11T10:47:28;21.87;;;11.80;;
21305;SDS011;10812;51.838;5.838;2022-12-11T10:50:00;18.73;;;11.50;;
21305;SDS011;10812;51.838;5.838;2022-12-11T10:52:31;20.00;;;11.37;;
21305;SDS011;10812;51.838;5.838;2022-12-11T10:55:03;27.10;;;14.37;;
21305;SDS011;10812;51.838;5.838;2022-12-11T10:57:36;23.53;;;11.73;;
21305;SDS011;10812;51.838;5.838;2022-12-11T11:00:24;20.87;;;11.37;;
21305;SDS011;10812;51.838;5.838;2022-12-11T11:02:56;19.93;;;11.37;;
21305;SDS011;10812;51.838;5.838;2022-12-11T11:05:27;21.83;;;11.00;;
21305;SDS011;10812;51.838;5.838;2022-12-11T11:08:10;17.40;;;10.47;;
21305;SDS011;10812;51.838;5.838;2022-12-11T11:10:51;17.70;;;9.77;;
21305;SDS011;10812;51.838;5.838;2022-12-11T11:13:22;23.00;;;11.80;;
21305;SDS011;10812;51.838;5.838;2022-12-11T11:15:58;20.33;;;11.77;;
21305;SDS011;10812;51.838;5.838;2022-12-11T11:18:27;18.03;;;9.87;;
21305;SDS011;10812;51.838;5.838;2022-12-11T11:20:57;19.93;;;9.40;;
21305;SDS011;10812;51.838;5.838;2022-12-11T11:23:26;17.30;;;10.70;;
21305;SDS011;10812;51.838;5.838;2022-12-11T11:25:55;17.93;;;10.40;;
21305;SDS011;10812;51.838;5.838;2022-12-11T11:28:26;15.90;;;9.23;;
21305;SDS011;10812;51.838;5.838;2022-12-11T11:31:02;18.40;;;10.30;;
21305;SDS011;10812;51.838;5.838;2022-12-11T11:33:32;18.73;;;10.33;;
21305;SDS011;10812;51.838;5.838;2022-12-11T11:36:03;18.23;;;10.10;;
21305;SDS011;10812;51.838;5.838;2022-12-11T11:38:33;18.27;;;9.30;;
21305;SDS011;10812;51.838;5.838;2022-12-11T11:41:09;17.67;;;9.77;;
21305;SDS011;10812;51.838;5.838;2022-12-11T11:43:42;18.97;;;10.13;;
21305;SDS011;10812;51.838;5.838;2022-12-11T11:46:15;20.57;;;10.40;;
21305;SDS011;10812;51.838;5.838;2022-12-11T11:48:50;15.53;;;9.23;;
21305;SDS011;10812;51.838;5.838;2022-12-11T11:51:26;20.93;;;10.70;;
21305;SDS011;10812;51.838;5.838;2022-12-11T11:54:02;16.80;;;9.57;;
21305;SDS011;10812;51.838;5.838;2022-12-11T11:56:36;22.17;;;10.33;;
21305;SDS011;10812;51.838;5.838;2022-12-11T11:59:06;19.90;;;10.23;;
21305;SDS011;10812;51.838;5.838;2022-12-11T12:01:46;19.23;;;10.70;;
21305;SDS011;10812;51.838;5.838;2022-12-11T12:04:14;17.70;;;9.57;;
21305;SDS011;10812;51.838;5.838;2022-12-11T12:06:48;21.00;;;10.50;;
21305;SDS011;10812;51.838;5.838;2022-12-11T12:09:33;21.13;;;11.50;;
21305;SDS011;10812;51.838;5.838;2022-12-11T12:12:12;17.57;;;9.70;;
21305;SDS011;10812;51.838;5.838;2022-12-11T12:14:55;17.03;;;10.30;;
21305;SDS011;10812;51.838;5.838;2022-12-11T12:17:36;26.13;;;11.17;;
21305;SDS011;10812;51.838;5.838;2022-12-11T12:20:23;21.47;;;12.20;;
21305;SDS011;10812;51.838;5.838;2022-12-11T12:23:01;19.87;;;10.50;;
21305;SDS011;10812;51.838;5.838;2022-12-11T12:25:39;18.87;;;9.93;;
21305;SDS011;10812;51.838;5.838;2022-12-11T12:28:15;23.77;;;11.30;;
21305;SDS011;10812;51.838;5.838;2022-12-11T12:30:55;21.00;;;11.17;;
21305;SDS011;10812;51.838;5.838;2022-12-11T12:33:36;20.40;;;11.10;;
21305;SDS011;10812;51.838;5.838;2022-12-11T12:36:14;18.57;;;11.70;;
21305;SDS011;10812;51.838;5.838;2022-12-11T12:38:51;25.83;;;11.77;;
21305;SDS011;10812;51.838;5.838;2022-12-11T12:41:22;23.83;;;11.50;;
21305;SDS011;10812;51.838;5.838;2022-12-11T12:44:07;20.57;;;11.00;;
21305;SDS011;10812;51.838;5.838;2022-12-11T12:46:45;23.23;;;11.67;;
21305;SDS011;10812;51.838;5.838;2022-12-11T12:49:29;18.00;;;10.87;;
21305;SDS011;10812;51.838;5.838;2022-12-11T12:52:01;18.83;;;10.77;;
21305;SDS011;10812;51.838;5.838;2022-12-11T12:54:31;19.63;;;11.33;;
21305;SDS011;10812;51.838;5.838;2022-12-11T12:57:02;21.47;;;11.60;;
21305;SDS011;10812;51.838;5.838;2022-12-11T12:59:31;19.77;;;11.57;;
21305;SDS011;10812;51.838;5.838;2022-12-11T13:01:59;16.97;;;10.17;;
21305;SDS011;10812;51.838;5.838;2022-12-11T13:04:38;17.97;;;10.40;;
21305;SDS011;10812;51.838;5.838;2022-12-11T13:07:24;20.90;;;10.73;;
21305;SDS011;10812;51.838;5.838;2022-12-11T13:10:02;18.03;;;10.20;;
21305;SDS011;10812;51.838;5.838;2022-12-11T13:12:42;19.17;;;9.50;;
21305;SDS011;10812;51.838;5.838;2022-12-11T13:17:57;16.53;;;10.10;;
21305;SDS011;10812;51.838;5.838;2022-12-11T13:20:29;18.87;;;10.30;;
21305;SDS011;10812;51.838;5.838;2022-12-11T13:23:09;18.33;;;10.67;;
21305;SDS011;10812;51.838;5.838;2022-12-11T13:25:52;17.47;;;10.07;;
21305;SDS011;10812;51.838;5.838;2022-12-11T13:28:32;20.67;;;11.73;;
21305;SDS011;10812;51.838;5.838;2022-12-11T13:31:24;16.23;;;10.07;;
21305;SDS011;10812;51.838;5.838;2022-12-11T13:34:04;21.90;;;10.80;;
21305;SDS011;10812;51.838;5.838;2022-12-11T13:36:44;21.00;;;11.60;;
21305;SDS011;10812;51.838;5.838;2022-12-11T13:39:15;18.20;;;11.27;;
21305;SDS011;10812;51.838;5.838;2022-12-11T13:41:45;19.80;;;10.30;;
21305;SDS011;10812;51.838;5.838;2022-12-11T13:44:15;18.93;;;10.67;;
21305;SDS011;10812;51.838;5.838;2022-12-11T13:46:49;19.97;;;10.60;;
21305;SDS011;10812;51.838;5.838;2022-12-11T13:49:20;20.37;;;10.53;;
21305;SDS011;10812;51.838;5.838;2022-12-11T13:51:52;16.90;;;9.67;;
21305;SDS011;10812;51.838;5.838;2022-12-11T13:54:22;19.93;;;10.97;;
21305;SDS011;10812;51.838;5.838;2022-12-11T13:56:55;17.90;;;10.07;;
21305;SDS011;10812;51.838;5.838;2022-12-11T13:59:26;17.70;;;10.13;;
21305;SDS011;10812;51.838;5.838;2022-12-11T14:01:57;20.63;;;11.30;;
21305;SDS011;10812;51.838;5.838;2022-12-11T14:04:30;18.23;;;10.50;;
21305;SDS011;10812;51.838;5.838;2022-12-11T14:07:01;18.37;;;10.30;;
21305;SDS011;10812;51.838;5.838;2022-12-11T14:09:33;19.70;;;10.80;;
21305;SDS011;10812;51.838;5.838;2022-12-11T14:12:11;18.80;;;10.50;;
21305;SDS011;10812;51.838;5.838;2022-12-11T14:14:44;19.70;;;10.57;;
21305;SDS011;10812;51.838;5.838;2022-12-11T14:17:17;16.67;;;9.83;;
21305;SDS011;10812;51.838;5.838;2022-12-11T14:19:49;21.20;;;9.97;;
21305;SDS011;10812;51.838;5.838;2022-12-11T14:22:21;17.43;;;10.10;;
21305;SDS011;10812;51.838;5.838;2022-12-11T14:24:51;20.07;;;9.93;;
21305;SDS011;10812;51.838;5.838;2022-12-11T14:27:20;18.73;;;10.40;;
21305;SDS011;10812;51.838;5.838;2022-12-11T14:29:49;20.67;;;10.67;;
21305;SDS011;10812;51.838;5.838;2022-12-11T14:32:19;19.20;;;10.77;;
21305;SDS011;10812;51.838;5.838;2022-12-11T14:34:51;19.47;;;9.70;;
21305;SDS011;10812;51.838;5.838;2022-12-11T14:37:21;18.63;;;9.43;;
21305;SDS011;10812;51.838;5.838;2022-12-11T14:39:54;17.33;;;9.70;;
21305;SDS011;10812;51.838;5.838;2022-12-11T14:42:26;16.90;;;9.27;;
21305;SDS011;10812;51.838;5.838;2022-12-11T14:44:57;16.70;;;10.13;;
21305;SDS011;10812;51.838;5.838;2022-12-11T14:47:31;18.87;;;9.80;;
21305;SDS011;10812;51.838;5.838;2022-12-11T14:50:05;19.97;;;10.87;;
21305;SDS011;10812;51.838;5.838;2022-12-11T14:52:40;19.50;;;11.00;;
21305;SDS011;10812;51.838;5.838;2022-12-11T14:55:12;15.93;;;9.20;;
21305;SDS011;10812;51.838;5.838;2022-12-11T14:57:44;19.80;;;9.77;;
21305;SDS011;10812;51.838;5.838;2022-12-11T15:00:20;23.27;;;11.50;;
21305;SDS011;10812;51.838;5.838;2022-12-11T15:02:56;22.67;;;11.47;;
21305;SDS011;10812;51.838;5.838;2022-12-11T15:05:26;24.83;;;11.37;;
21305;SDS011;10812;51.838;5.838;2022-12-11T15:07:58;22.13;;;11.60;;
21305;SDS011;10812;51.838;5.838;2022-12-11T15:10:29;22.80;;;12.03;;
21305;SDS011;10812;51.838;5.838;2022-12-11T15:13:02;21.33;;;12.37;;
21305;SDS011;10812;51.838;5.838;2022-12-11T15:15:33;24.80;;;11.40;;
21305;SDS011;10812;51.838;5.838;2022-12-11T15:18:21;17.90;;;11.53;;
21305;SDS011;10812;51.838;5.838;2022-12-11T15:20:51;18.27;;;10.67;;
21305;SDS011;10812;51.838;5.838;2022-12-11T15:23:22;19.77;;;11.50;;
21305;SDS011;10812;51.838;5.838;2022-12-11T15:25:50;18.93;;;10.93;;
21305;SDS011;10812;51.838;5.838;2022-12-11T15:28:33;25.73;;;14.47;;
21305;SDS011;10812;51.838;5.838;2022-12-11T15:31:04;23.33;;;11.93;;